Station History

Weather Underground - logo

Station Historical Data
Daily Summary for January 20, 2018 Units:  Both    English   Metric
« Previous Day
Next Day »
Daily Weekly Monthly Yearly Custom
  High: Low: Average:
Temperature: 51.1 °F /  10.6 °C 34.5 °F /  1.4 °C 42 °F /  5.6 °C
Dew Point: 42.3 °F /  5.7 °C 32.7 °F /  0.4 °C 38.7 °F /  3.7 °C
Humidity: 96 % 71 % 89 %
Wind Speed: 9.2 mph /  14.8 km/h - 0.6 mph /  1 km/h
Wind Gust: 9.2 mph /  14.8 km/h - -
Wind:- - South
Pressure: 30.30 in /  1026 hPa 30.06 in /  1017.8 hPa -
Precipitation: 0.00 in /  0 mm    
Historical Graphs
 
 
Tabular Data for January 20, 2018
Time Temperature Dew Point Pressure Wind Wind Speed Wind Gust Humidity Rainfall Rate (Hourly)
00:00 40.2 °F /  4.6 °C 38.9 °F /  3.8 °C 30.06 in /  1017.8 hPa Calm     95 % 0.00 in /  0 mm
00:05 40.2 °F /  4.6 °C 38.9 °F /  3.8 °C 30.06 in /  1017.8 hPa Calm     95 % 0.00 in /  0 mm
00:10 40.3 °F /  4.6 °C 39.0 °F /  3.9 °C 30.06 in /  1017.8 hPa Calm     95 % 0.00 in /  0 mm
00:15 40.3 °F /  4.6 °C 39.0 °F /  3.9 °C 30.06 in /  1017.8 hPa Calm     95 % 0.00 in /  0 mm
00:20 40.1 °F /  4.5 °C 38.8 °F /  3.8 °C 30.06 in /  1017.8 hPa Calm     95 % 0.00 in /  0 mm
00:26 39.7 °F /  4.3 °C 38.1 °F /  3.4 °C 30.06 in /  1017.8 hPa Calm     94 % 0.00 in /  0 mm
00:30 39.4 °F /  4.1 °C 37.8 °F /  3.2 °C 30.06 in /  1017.8 hPa West 1.2 mph /  1.9 km/h 1.2 mph /  1.9 km/h 94 % 0.00 in /  0 mm
00:36 39.4 °F /  4.1 °C 38.1 °F /  3.4 °C 30.06 in /  1017.8 hPa Calm     95 % 0.00 in /  0 mm
00:41 39.6 °F /  4.2 °C 38.3 °F /  3.5 °C 30.06 in /  1017.8 hPa Calm     95 % 0.00 in /  0 mm
00:46 39.4 °F /  4.1 °C 38.1 °F /  3.4 °C 30.06 in /  1017.8 hPa Calm     95 % 0.00 in /  0 mm
00:51 39.1 °F /  3.9 °C 37.5 °F /  3.1 °C 30.06 in /  1017.8 hPa Calm     94 % 0.00 in /  0 mm
00:56 38.7 °F /  3.7 °C 37.1 °F /  2.8 °C 30.06 in /  1017.8 hPa Calm     94 % 0.00 in /  0 mm
01:01 38.6 °F /  3.7 °C 37.0 °F /  2.8 °C 30.06 in /  1017.8 hPa Calm     94 % 0.00 in /  0 mm
01:06 38.5 °F /  3.6 °C 37.2 °F /  2.9 °C 30.06 in /  1017.8 hPa Calm     95 % 0.00 in /  0 mm
01:11 38.4 °F /  3.6 °C 37.1 °F /  2.8 °C 30.06 in /  1017.8 hPa Calm     95 % 0.00 in /  0 mm
01:16 38.3 °F /  3.5 °C 37.0 °F /  2.8 °C 30.06 in /  1017.8 hPa Calm     95 % 0.00 in /  0 mm
01:21 38.3 °F /  3.5 °C 37.0 °F /  2.8 °C 30.06 in /  1017.8 hPa Calm     95 % 0.00 in /  0 mm
01:26 38.1 °F /  3.4 °C 36.8 °F /  2.7 °C 30.06 in /  1017.8 hPa Calm     95 % 0.00 in /  0 mm
01:31 38.1 °F /  3.4 °C 36.8 °F /  2.7 °C 30.06 in /  1017.8 hPa Calm     95 % 0.00 in /  0 mm
01:36 37.9 °F /  3.3 °C 36.6 °F /  2.6 °C 30.06 in /  1017.8 hPa Calm     95 % 0.00 in /  0 mm
01:41 37.8 °F /  3.2 °C 36.5 °F /  2.5 °C 30.06 in /  1017.8 hPa Calm     95 % 0.00 in /  0 mm
01:46 37.7 °F /  3.2 °C 36.4 °F /  2.4 °C 30.06 in /  1017.8 hPa Calm     95 % 0.00 in /  0 mm
01:51 37.7 °F /  3.2 °C 36.4 °F /  2.4 °C 30.06 in /  1017.8 hPa Calm     95 % 0.00 in /  0 mm
01:56 37.7 °F /  3.2 °C 36.4 °F /  2.4 °C 30.06 in /  1017.8 hPa Calm     95 % 0.00 in /  0 mm
02:01 37.7 °F /  3.2 °C 36.4 °F /  2.4 °C 30.06 in /  1017.8 hPa Calm     95 % 0.00 in /  0 mm
02:06 37.8 °F /  3.2 °C 36.5 °F /  2.5 °C 30.06 in /  1017.8 hPa West 9.2 mph /  14.8 km/h 9.2 mph /  14.8 km/h 95 % 0.00 in /  0 mm
02:11 37.9 °F /  3.3 °C 36.6 °F /  2.6 °C 30.06 in /  1017.8 hPa Calm     95 % 0.00 in /  0 mm
02:16 37.8 °F /  3.2 °C 36.5 °F /  2.5 °C 30.06 in /  1017.8 hPa Calm     95 % 0.00 in /  0 mm
02:21 37.7 °F /  3.2 °C 36.4 °F /  2.4 °C 30.06 in /  1017.8 hPa Calm     95 % 0.00 in /  0 mm
02:26 37.8 °F /  3.2 °C 36.5 °F /  2.5 °C 30.06 in /  1017.8 hPa Calm     95 % 0.00 in /  0 mm
02:31 37.7 °F /  3.2 °C 36.4 °F /  2.4 °C 30.06 in /  1017.8 hPa Calm     95 % 0.00 in /  0 mm
02:36 37.8 °F /  3.2 °C 36.5 °F /  2.5 °C 30.06 in /  1017.8 hPa Calm     95 % 0.00 in /  0 mm
02:41 37.7 °F /  3.2 °C 36.4 °F /  2.4 °C 30.07 in /  1018.2 hPa Calm     95 % 0.00 in /  0 mm
02:46 37.6 °F /  3.1 °C 36.3 °F /  2.4 °C 30.06 in /  1017.8 hPa Calm     95 % 0.00 in /  0 mm
02:51 37.4 °F /  3 °C 36.1 °F /  2.3 °C 30.06 in /  1017.8 hPa Calm     95 % 0.00 in /  0 mm
02:56 37.3 °F /  2.9 °C 36.0 °F /  2.2 °C 30.06 in /  1017.8 hPa Calm     95 % 0.00 in /  0 mm
03:01 37.2 °F /  2.9 °C 35.9 °F /  2.2 °C 30.06 in /  1017.8 hPa Calm     95 % 0.00 in /  0 mm
03:06 37.3 °F /  2.9 °C 36.0 °F /  2.2 °C 30.06 in /  1017.8 hPa Calm     95 % 0.00 in /  0 mm
03:11 37.4 °F /  3 °C 36.1 °F /  2.3 °C 30.06 in /  1017.8 hPa Calm     95 % 0.00 in /  0 mm
03:16 37.3 °F /  2.9 °C 36.0 °F /  2.2 °C 30.06 in /  1017.8 hPa Calm     95 % 0.00 in /  0 mm
03:21 37.2 °F /  2.9 °C 35.9 °F /  2.2 °C 30.06 in /  1017.8 hPa Calm     95 % 0.00 in /  0 mm
03:26 37.2 °F /  2.9 °C 35.9 °F /  2.2 °C 30.06 in /  1017.8 hPa Calm     95 % 0.00 in /  0 mm
03:31 37.2 °F /  2.9 °C 35.9 °F /  2.2 °C 30.06 in /  1017.8 hPa Calm     95 % 0.00 in /  0 mm
03:36 36.9 °F /  2.7 °C 35.6 °F /  2 °C 30.06 in /  1017.8 hPa Calm     95 % 0.00 in /  0 mm
03:41 36.7 °F /  2.6 °C 35.4 °F /  1.9 °C 30.06 in /  1017.8 hPa Calm     95 % 0.00 in /  0 mm
03:46 36.6 °F /  2.6 °C 35.3 °F /  1.8 °C 30.06 in /  1017.8 hPa Calm     95 % 0.00 in /  0 mm
03:51 36.4 °F /  2.4 °C 35.1 °F /  1.7 °C 30.06 in /  1017.8 hPa Calm     95 % 0.00 in /  0 mm
03:56 36.3 °F /  2.4 °C 35.0 °F /  1.7 °C 30.06 in /  1017.8 hPa Calm     95 % 0.00 in /  0 mm
04:01 36.1 °F /  2.3 °C 34.8 °F /  1.6 °C 30.06 in /  1017.8 hPa Calm     95 % 0.00 in /  0 mm
04:06 36.0 °F /  2.2 °C 34.7 °F /  1.5 °C 30.06 in /  1017.8 hPa Calm     95 % 0.00 in /  0 mm
04:11 35.9 °F /  2.2 °C 34.6 °F /  1.4 °C 30.07 in /  1018.2 hPa Calm     95 % 0.00 in /  0 mm
04:16 35.8 °F /  2.1 °C 34.5 °F /  1.4 °C 30.07 in /  1018.2 hPa Calm     95 % 0.00 in /  0 mm
04:21 35.6 °F /  2 °C 34.3 °F /  1.3 °C 30.07 in /  1018.2 hPa Calm     95 % 0.00 in /  0 mm
04:25 35.7 °F /  2.1 °C 34.4 °F /  1.3 °C 30.07 in /  1018.2 hPa Calm     95 % 0.00 in /  0 mm
04:30 35.9 °F /  2.2 °C 34.6 °F /  1.4 °C 30.07 in /  1018.2 hPa Calm     95 % 0.00 in /  0 mm
04:35 35.9 °F /  2.2 °C 34.9 °F /  1.6 °C 30.07 in /  1018.2 hPa Calm     96 % 0.00 in /  0 mm
04:40 36.2 °F /  2.3 °C 35.2 °F /  1.8 °C 30.07 in /  1018.2 hPa Calm     96 % 0.00 in /  0 mm
04:45 36.5 °F /  2.5 °C 35.5 °F /  1.9 °C 30.08 in /  1018.5 hPa Calm     96 % 0.00 in /  0 mm
04:50 36.7 °F /  2.6 °C 35.7 °F /  2.1 °C 30.08 in /  1018.5 hPa Calm     96 % 0.00 in /  0 mm
04:55 36.9 °F /  2.7 °C 35.9 °F /  2.2 °C 30.08 in /  1018.5 hPa Calm     96 % 0.00 in /  0 mm
05:00 37.1 °F /  2.8 °C 36.1 °F /  2.3 °C 30.08 in /  1018.5 hPa Calm     96 % 0.00 in /  0 mm
05:05 37.3 °F /  2.9 °C 36.3 °F /  2.4 °C 30.08 in /  1018.5 hPa Calm     96 % 0.00 in /  0 mm
05:10 37.5 °F /  3.1 °C 36.5 °F /  2.5 °C 30.08 in /  1018.5 hPa Calm     96 % 0.00 in /  0 mm
05:15 37.7 °F /  3.2 °C 36.7 °F /  2.6 °C 30.09 in /  1018.8 hPa Calm     96 % 0.00 in /  0 mm
05:20 37.9 °F /  3.3 °C 36.9 °F /  2.7 °C 30.09 in /  1018.8 hPa Calm     96 % 0.00 in /  0 mm
05:25 38.2 °F /  3.4 °C 37.2 °F /  2.9 °C 30.09 in /  1018.8 hPa Calm     96 % 0.00 in /  0 mm
05:30 38.6 °F /  3.7 °C 37.6 °F /  3.1 °C 30.09 in /  1018.8 hPa Calm     96 % 0.00 in /  0 mm
05:35 38.9 °F /  3.8 °C 37.9 °F /  3.3 °C 30.09 in /  1018.8 hPa Calm     96 % 0.00 in /  0 mm
05:40 39.1 °F /  3.9 °C 38.1 °F /  3.4 °C 30.09 in /  1018.8 hPa Calm     96 % 0.00 in /  0 mm
05:45 39.2 °F /  4 °C 38.2 °F /  3.4 °C 30.10 in /  1019.2 hPa Calm     96 % 0.00 in /  0 mm
05:50 39.3 °F /  4.1 °C 38.3 °F /  3.5 °C 30.10 in /  1019.2 hPa Calm     96 % 0.00 in /  0 mm
05:55 39.4 °F /  4.1 °C 38.4 °F /  3.6 °C 30.10 in /  1019.2 hPa Calm     96 % 0.00 in /  0 mm
06:00 39.6 °F /  4.2 °C 38.6 °F /  3.7 °C 30.10 in /  1019.2 hPa Calm     96 % 0.00 in /  0 mm
06:05 39.7 °F /  4.3 °C 38.7 °F /  3.7 °C 30.10 in /  1019.2 hPa Calm     96 % 0.00 in /  0 mm
06:10 39.7 °F /  4.3 °C 38.7 °F /  3.7 °C 30.11 in /  1019.5 hPa Calm     96 % 0.00 in /  0 mm
06:15 39.8 °F /  4.3 °C 38.8 °F /  3.8 °C 30.11 in /  1019.5 hPa Calm     96 % 0.00 in /  0 mm
06:20 39.9 °F /  4.4 °C 38.9 °F /  3.8 °C 30.11 in /  1019.5 hPa West 1.2 mph /  1.9 km/h   96 % 0.00 in /  0 mm
06:25 39.9 °F /  4.4 °C 38.9 °F /  3.8 °C 30.11 in /  1019.5 hPa West 1.2 mph /  1.9 km/h   96 % 0.00 in /  0 mm
06:30 39.9 °F /  4.4 °C 38.9 °F /  3.8 °C 30.11 in /  1019.5 hPa Calm     96 % 0.00 in /  0 mm
06:35 40.0 °F /  4.4 °C 39.0 °F /  3.9 °C 30.11 in /  1019.5 hPa Calm     96 % 0.00 in /  0 mm
06:40 40.0 °F /  4.4 °C 39.0 °F /  3.9 °C 30.11 in /  1019.5 hPa Calm     96 % 0.00 in /  0 mm
06:45 40.1 °F /  4.5 °C 39.1 °F /  3.9 °C 30.11 in /  1019.5 hPa West 1.2 mph /  1.9 km/h 1.2 mph /  1.9 km/h 96 % 0.00 in /  0 mm
06:50 40.2 °F /  4.6 °C 39.2 °F /  4 °C 30.11 in /  1019.5 hPa Calm     96 % 0.00 in /  0 mm
06:55 40.2 °F /  4.6 °C 39.2 °F /  4 °C 30.11 in /  1019.5 hPa Calm     96 % 0.00 in /  0 mm
07:01 40.2 °F /  4.6 °C 39.2 °F /  4 °C 30.11 in /  1019.5 hPa Calm     96 % 0.00 in /  0 mm
07:06 40.3 °F /  4.6 °C 39.3 °F /  4.1 °C 30.11 in /  1019.5 hPa West 1.2 mph /  1.9 km/h 1.2 mph /  1.9 km/h 96 % 0.00 in /  0 mm
07:11 40.3 °F /  4.6 °C 39.3 °F /  4.1 °C 30.12 in /  1019.9 hPa Calm     96 % 0.00 in /  0 mm
07:16 40.4 °F /  4.7 °C 39.4 °F /  4.1 °C 30.12 in /  1019.9 hPa West 1.0 mph /  1.6 km/h   96 % 0.00 in /  0 mm
07:21 40.4 °F /  4.7 °C 39.4 °F /  4.1 °C 30.12 in /  1019.9 hPa West 1.2 mph /  1.9 km/h   96 % 0.00 in /  0 mm
07:26 40.5 °F /  4.7 °C 39.4 °F /  4.1 °C 30.12 in /  1019.9 hPa Calm     96 % 0.00 in /  0 mm
07:31 40.5 °F /  4.7 °C 39.4 °F /  4.1 °C 30.12 in /  1019.9 hPa West 1.2 mph /  1.9 km/h   96 % 0.00 in /  0 mm
07:36 40.6 °F /  4.8 °C 39.5 °F /  4.2 °C 30.12 in /  1019.9 hPa Calm     96 % 0.00 in /  0 mm
07:41 40.6 °F /  4.8 °C 39.5 °F /  4.2 °C 30.13 in /  1020.2 hPa Calm     96 % 0.00 in /  0 mm
07:46 40.7 °F /  4.8 °C 39.6 °F /  4.2 °C 30.13 in /  1020.2 hPa Calm     96 % 0.00 in /  0 mm
07:51 40.7 °F /  4.8 °C 39.6 °F /  4.2 °C 30.13 in /  1020.2 hPa Calm     96 % 0.00 in /  0 mm
07:56 40.8 °F /  4.9 °C 39.7 °F /  4.3 °C 30.14 in /  1020.5 hPa WSW 1.2 mph /  1.9 km/h   96 % 0.00 in /  0 mm
08:01 40.9 °F /  4.9 °C 39.8 °F /  4.3 °C 30.14 in /  1020.5 hPa Calm     96 % 0.00 in /  0 mm
08:06 41.1 °F /  5.1 °C 40.0 °F /  4.4 °C 30.15 in /  1020.9 hPa Calm     96 % 0.00 in /  0 mm
08:11 41.2 °F /  5.1 °C 40.1 °F /  4.5 °C 30.15 in /  1020.9 hPa West 1.2 mph /  1.9 km/h 1.2 mph /  1.9 km/h 96 % 0.00 in /  0 mm
08:16 41.2 °F /  5.1 °C 40.1 °F /  4.5 °C 30.15 in /  1020.9 hPa Calm     96 % 0.00 in /  0 mm
08:21 41.3 °F /  5.2 °C 40.0 °F /  4.4 °C 30.16 in /  1021.2 hPa WSW 1.2 mph /  1.9 km/h 1.2 mph /  1.9 km/h 95 % 0.00 in /  0 mm
08:26 41.5 °F /  5.3 °C 40.4 °F /  4.7 °C 30.16 in /  1021.2 hPa Calm   0.1 mph /  0.2 km/h 96 % 0.00 in /  0 mm
08:31 41.5 °F /  5.3 °C 40.2 °F /  4.6 °C 30.17 in /  1021.6 hPa SSE 1.2 mph /  1.9 km/h   95 % 0.00 in /  0 mm
08:36 41.6 °F /  5.3 °C 40.3 °F /  4.6 °C 30.17 in /  1021.6 hPa Calm     95 % 0.00 in /  0 mm
08:41 41.5 °F /  5.3 °C 40.2 °F /  4.6 °C 30.17 in /  1021.6 hPa SSE 2.3 mph /  3.7 km/h 2.3 mph /  3.7 km/h 95 % 0.00 in /  0 mm
08:46 41.4 °F /  5.2 °C 40.1 °F /  4.5 °C 30.17 in /  1021.6 hPa SE 2.3 mph /  3.7 km/h 2.3 mph /  3.7 km/h 95 % 0.00 in /  0 mm
08:51 41.4 °F /  5.2 °C 40.1 °F /  4.5 °C 30.18 in /  1021.9 hPa SE 1.2 mph /  1.9 km/h 1.2 mph /  1.9 km/h 95 % 0.00 in /  0 mm
08:56 41.6 °F /  5.3 °C 40.3 °F /  4.6 °C 30.18 in /  1021.9 hPa Calm     95 % 0.00 in /  0 mm
09:01 41.9 °F /  5.5 °C 40.6 °F /  4.8 °C 30.18 in /  1021.9 hPa Calm     95 % 0.00 in /  0 mm
09:06 42.2 °F /  5.7 °C 40.9 °F /  4.9 °C 30.18 in /  1021.9 hPa Calm     95 % 0.00 in /  0 mm
09:11 42.5 °F /  5.8 °C 41.2 °F /  5.1 °C 30.18 in /  1021.9 hPa SE 1.2 mph /  1.9 km/h 1.2 mph /  1.9 km/h 95 % 0.00 in /  0 mm
09:16 42.7 °F /  5.9 °C 41.1 °F /  5.1 °C 30.19 in /  1022.2 hPa SE 1.2 mph /  1.9 km/h 1.2 mph /  1.9 km/h 94 % 0.00 in /  0 mm
09:21 42.8 °F /  6 °C 41.2 °F /  5.1 °C 30.19 in /  1022.2 hPa Calm     94 % 0.00 in /  0 mm
09:26 43.3 °F /  6.3 °C 41.7 °F /  5.4 °C 30.19 in /  1022.2 hPa Calm     94 % 0.00 in /  0 mm
09:31 43.9 °F /  6.6 °C 42.0 °F /  5.6 °C 30.19 in /  1022.2 hPa Calm     93 % 0.00 in /  0 mm
09:36 44.1 °F /  6.7 °C 42.2 °F /  5.7 °C 30.19 in /  1022.2 hPa SSW 1.2 mph /  1.9 km/h   93 % 0.00 in /  0 mm
09:41 44.2 °F /  6.8 °C 41.7 °F /  5.4 °C 30.19 in /  1022.2 hPa Calm     91 % 0.00 in /  0 mm
09:46 44.3 °F /  6.8 °C 41.8 °F /  5.4 °C 30.20 in /  1022.6 hPa Calm     91 % 0.00 in /  0 mm
09:51 44.1 °F /  6.7 °C 41.4 °F /  5.2 °C 30.20 in /  1022.6 hPa NW 2.0 mph /  3.2 km/h 2.0 mph /  3.2 km/h 90 % 0.00 in /  0 mm
09:56 44.0 °F /  6.7 °C 41.0 °F /  5 °C 30.20 in /  1022.6 hPa WSW 1.2 mph /  1.9 km/h   89 % 0.00 in /  0 mm
10:01 43.8 °F /  6.6 °C 40.5 °F /  4.7 °C 30.20 in /  1022.6 hPa WSW 1.2 mph /  1.9 km/h 1.2 mph /  1.9 km/h 88 % 0.00 in /  0 mm
10:06 43.7 °F /  6.5 °C 40.4 °F /  4.7 °C 30.20 in /  1022.6 hPa Calm   0.6 mph /  1 km/h 88 % 0.00 in /  0 mm
10:11 43.6 °F /  6.4 °C 40.6 °F /  4.8 °C 30.21 in /  1022.9 hPa Calm     89 % 0.00 in /  0 mm
10:16 43.7 °F /  6.5 °C 40.4 °F /  4.7 °C 30.20 in /  1022.6 hPa Calm   0.3 mph /  0.5 km/h 88 % 0.00 in /  0 mm
10:21 43.7 °F /  6.5 °C 40.4 °F /  4.7 °C 30.21 in /  1022.9 hPa West 1.2 mph /  1.9 km/h 1.2 mph /  1.9 km/h 88 % 0.00 in /  0 mm
10:26 43.7 °F /  6.5 °C 40.4 °F /  4.7 °C 30.21 in /  1022.9 hPa NW 1.2 mph /  1.9 km/h 1.2 mph /  1.9 km/h 88 % 0.00 in /  0 mm
10:31 43.7 °F /  6.5 °C 40.4 °F /  4.7 °C 30.21 in /  1022.9 hPa WNW 1.2 mph /  1.9 km/h 1.2 mph /  1.9 km/h 88 % 0.00 in /  0 mm
10:36 44.0 °F /  6.7 °C 40.7 °F /  4.8 °C 30.21 in /  1022.9 hPa NNW 2.3 mph /  3.7 km/h 2.3 mph /  3.7 km/h 88 % 0.00 in /  0 mm
10:41 44.1 °F /  6.7 °C 40.5 °F /  4.7 °C 30.21 in /  1022.9 hPa NW 3.5 mph /  5.6 km/h 3.5 mph /  5.6 km/h 87 % 0.00 in /  0 mm
10:46 44.4 °F /  6.9 °C 40.5 °F /  4.7 °C 30.21 in /  1022.9 hPa WNW 1.2 mph /  1.9 km/h 1.2 mph /  1.9 km/h 86 % 0.00 in /  0 mm
10:51 44.6 °F /  7 °C 40.7 °F /  4.8 °C 30.21 in /  1022.9 hPa WNW 1.2 mph /  1.9 km/h 1.2 mph /  1.9 km/h 86 % 0.00 in /  0 mm
10:56 44.9 °F /  7.2 °C 40.7 °F /  4.8 °C 30.20 in /  1022.6 hPa NNW 1.0 mph /  1.6 km/h   85 % 0.00 in /  0 mm
11:01 45.2 °F /  7.3 °C 41.3 °F /  5.2 °C 30.20 in /  1022.6 hPa NW 1.2 mph /  1.9 km/h 1.2 mph /  1.9 km/h 86 % 0.00 in /  0 mm
11:06 45.6 °F /  7.6 °C 41.4 °F /  5.2 °C 30.20 in /  1022.6 hPa Calm     85 % 0.00 in /  0 mm
11:11 46.0 °F /  7.8 °C 41.4 °F /  5.2 °C 30.20 in /  1022.6 hPa WNW 1.2 mph /  1.9 km/h 1.2 mph /  1.9 km/h 84 % 0.00 in /  0 mm
11:16 46.4 °F /  8 °C 41.8 °F /  5.4 °C 30.20 in /  1022.6 hPa NNW 1.0 mph /  1.6 km/h 1.0 mph /  1.6 km/h 84 % 0.00 in /  0 mm
11:21 46.7 °F /  8.2 °C 42.1 °F /  5.6 °C 30.20 in /  1022.6 hPa Calm     84 % 0.00 in /  0 mm
11:26 46.8 °F /  8.2 °C 41.6 °F /  5.3 °C 30.20 in /  1022.6 hPa NNW 2.3 mph /  3.7 km/h 2.3 mph /  3.7 km/h 82 % 0.00 in /  0 mm
11:31 47.1 °F /  8.4 °C 41.9 °F /  5.5 °C 30.19 in /  1022.2 hPa NNW 1.2 mph /  1.9 km/h 1.2 mph /  1.9 km/h 82 % 0.00 in /  0 mm
11:36 47.1 °F /  8.4 °C 41.6 °F /  5.3 °C 30.19 in /  1022.2 hPa NNE 1.2 mph /  1.9 km/h   81 % 0.00 in /  0 mm
11:41 47.0 °F /  8.3 °C 41.5 °F /  5.3 °C 30.19 in /  1022.2 hPa NW 1.2 mph /  1.9 km/h   81 % 0.00 in /  0 mm
11:46 46.8 °F /  8.2 °C 41.3 °F /  5.2 °C 30.19 in /  1022.2 hPa NW 2.3 mph /  3.7 km/h 2.3 mph /  3.7 km/h 81 % 0.00 in /  0 mm
11:51 46.9 °F /  8.3 °C 41.7 °F /  5.4 °C 30.19 in /  1022.2 hPa Calm     82 % 0.00 in /  0 mm
11:56 47.0 °F /  8.3 °C 41.1 °F /  5.1 °C 30.19 in /  1022.2 hPa WNW 2.3 mph /  3.7 km/h 2.3 mph /  3.7 km/h 80 % 0.00 in /  0 mm
12:01 46.8 °F /  8.2 °C 41.0 °F /  5 °C 30.19 in /  1022.2 hPa Calm     80 % 0.00 in /  0 mm
12:06 47.1 °F /  8.4 °C 41.2 °F /  5.1 °C 30.18 in /  1021.9 hPa Calm     80 % 0.00 in /  0 mm
12:11 47.5 °F /  8.6 °C 41.6 °F /  5.3 °C 30.18 in /  1021.9 hPa WNW 1.2 mph /  1.9 km/h   80 % 0.00 in /  0 mm
12:16 47.8 °F /  8.8 °C 41.3 °F /  5.2 °C 30.18 in /  1021.9 hPa Calm     78 % 0.00 in /  0 mm
12:21 48.0 °F /  8.9 °C 42.1 °F /  5.6 °C 30.18 in /  1021.9 hPa SE 1.2 mph /  1.9 km/h 1.2 mph /  1.9 km/h 80 % 0.00 in /  0 mm
12:26 48.2 °F /  9 °C 42.0 °F /  5.6 °C 30.18 in /  1021.9 hPa SSE 1.2 mph /  1.9 km/h 1.2 mph /  1.9 km/h 79 % 0.00 in /  0 mm
12:31 48.3 °F /  9.1 °C 42.1 °F /  5.6 °C 30.18 in /  1021.9 hPa Calm     79 % 0.00 in /  0 mm
12:36 48.4 °F /  9.1 °C 42.2 °F /  5.7 °C 30.17 in /  1021.6 hPa East 2.3 mph /  3.7 km/h 2.3 mph /  3.7 km/h 79 % 0.00 in /  0 mm
12:41 48.5 °F /  9.2 °C 42.3 °F /  5.7 °C 30.17 in /  1021.6 hPa East 2.3 mph /  3.7 km/h 2.3 mph /  3.7 km/h 79 % 0.00 in /  0 mm
12:46 48.5 °F /  9.2 °C 41.6 °F /  5.3 °C 30.17 in /  1021.6 hPa East 2.3 mph /  3.7 km/h 2.3 mph /  3.7 km/h 77 % 0.00 in /  0 mm
12:51 48.2 °F /  9 °C 41.7 °F /  5.4 °C 30.17 in /  1021.6 hPa East 3.5 mph /  5.6 km/h 3.5 mph /  5.6 km/h 78 % 0.00 in /  0 mm
12:56 48.1 °F /  8.9 °C 41.6 °F /  5.3 °C 30.17 in /  1021.6 hPa East 3.5 mph /  5.6 km/h 3.5 mph /  5.6 km/h 78 % 0.00 in /  0 mm
13:01 48.1 °F /  8.9 °C 41.6 °F /  5.3 °C 30.17 in /  1021.6 hPa East 1.2 mph /  1.9 km/h 1.2 mph /  1.9 km/h 78 % 0.00 in /  0 mm
13:06 48.0 °F /  8.9 °C 41.5 °F /  5.3 °C 30.17 in /  1021.6 hPa East 1.2 mph /  1.9 km/h 1.2 mph /  1.9 km/h 78 % 0.00 in /  0 mm
13:11 48.1 °F /  8.9 °C 41.6 °F /  5.3 °C 30.17 in /  1021.6 hPa ENE 3.5 mph /  5.6 km/h 3.5 mph /  5.6 km/h 78 % 0.00 in /  0 mm
13:16 48.3 °F /  9.1 °C 42.1 °F /  5.6 °C 30.17 in /  1021.6 hPa SSE 1.2 mph /  1.9 km/h 1.2 mph /  1.9 km/h 79 % 0.00 in /  0 mm
13:21 48.4 °F /  9.1 °C 41.9 °F /  5.5 °C 30.17 in /  1021.6 hPa ESE 2.3 mph /  3.7 km/h 2.3 mph /  3.7 km/h 78 % 0.00 in /  0 mm
13:26 48.4 °F /  9.1 °C 42.2 °F /  5.7 °C 30.17 in /  1021.6 hPa SE 3.5 mph /  5.6 km/h 3.5 mph /  5.6 km/h 79 % 0.00 in /  0 mm
13:31 48.4 °F /  9.1 °C 41.9 °F /  5.5 °C 30.17 in /  1021.6 hPa East 1.2 mph /  1.9 km/h 1.2 mph /  1.9 km/h 78 % 0.00 in /  0 mm
13:36 48.4 °F /  9.1 °C 41.5 °F /  5.3 °C 30.17 in /  1021.6 hPa East 3.5 mph /  5.6 km/h 3.5 mph /  5.6 km/h 77 % 0.00 in /  0 mm
13:41 48.4 °F /  9.1 °C 41.9 °F /  5.5 °C 30.17 in /  1021.6 hPa SE 1.2 mph /  1.9 km/h 1.2 mph /  1.9 km/h 78 % 0.00 in /  0 mm
13:46 48.6 °F /  9.2 °C 41.7 °F /  5.4 °C 30.17 in /  1021.6 hPa NE 3.5 mph /  5.6 km/h 3.5 mph /  5.6 km/h 77 % 0.00 in /  0 mm
13:51 48.6 °F /  9.2 °C 41.4 °F /  5.2 °C 30.18 in /  1021.9 hPa SE 3.5 mph /  5.6 km/h 3.5 mph /  5.6 km/h 76 % 0.00 in /  0 mm
13:56 48.9 °F /  9.4 °C 42.0 °F /  5.6 °C 30.18 in /  1021.9 hPa SE 1.2 mph /  1.9 km/h 1.2 mph /  1.9 km/h 77 % 0.00 in /  0 mm
14:01 49.2 °F /  9.6 °C 42.3 °F /  5.7 °C 30.18 in /  1021.9 hPa ESE 3.0 mph /  4.8 km/h 3.0 mph /  4.8 km/h 77 % 0.00 in /  0 mm
14:06 49.7 °F /  9.8 °C 42.1 °F /  5.6 °C 30.18 in /  1021.9 hPa SE 5.0 mph /  8 km/h 5.0 mph /  8 km/h 75 % 0.00 in /  0 mm
14:11 49.6 °F /  9.8 °C 42.0 °F /  5.6 °C 30.18 in /  1021.9 hPa ESE 1.2 mph /  1.9 km/h 1.2 mph /  1.9 km/h 75 % 0.00 in /  0 mm
14:16 49.6 °F /  9.8 °C 41.7 °F /  5.4 °C 30.18 in /  1021.9 hPa SE 1.2 mph /  1.9 km/h 1.2 mph /  1.9 km/h 74 % 0.00 in /  0 mm
14:21 49.7 °F /  9.8 °C 42.1 °F /  5.6 °C 30.18 in /  1021.9 hPa SE 1.0 mph /  1.6 km/h 1.0 mph /  1.6 km/h 75 % 0.00 in /  0 mm
14:26 49.9 °F /  9.9 °C 41.9 °F /  5.5 °C 30.18 in /  1021.9 hPa South 1.2 mph /  1.9 km/h   74 % 0.00 in /  0 mm
14:31 50.2 °F /  10.1 °C 41.9 °F /  5.5 °C 30.18 in /  1021.9 hPa SE 2.3 mph /  3.7 km/h 2.3 mph /  3.7 km/h 73 % 0.00 in /  0 mm
14:36 50.2 °F /  10.1 °C 41.9 °F /  5.5 °C 30.18 in /  1021.9 hPa SE 1.2 mph /  1.9 km/h   73 % 0.00 in /  0 mm
14:41 50.2 °F /  10.1 °C 41.9 °F /  5.5 °C 30.18 in /  1021.9 hPa SE 1.2 mph /  1.9 km/h 1.2 mph /  1.9 km/h 73 % 0.00 in /  0 mm
14:46 50.4 °F /  10.2 °C 41.7 °F /  5.4 °C 30.18 in /  1021.9 hPa Calm     72 % 0.00 in /  0 mm
14:51 50.9 °F /  10.5 °C 41.8 °F /  5.4 °C 30.18 in /  1021.9 hPa SE 3.5 mph /  5.6 km/h 3.5 mph /  5.6 km/h 71 % 0.00 in /  0 mm
14:56 51.1 °F /  10.6 °C 42.0 °F /  5.6 °C 30.19 in /  1022.2 hPa SE 2.0 mph /  3.2 km/h 2.0 mph /  3.2 km/h 71 % 0.00 in /  0 mm
15:01 51.0 °F /  10.6 °C 42.3 °F /  5.7 °C 30.19 in /  1022.2 hPa SE 1.2 mph /  1.9 km/h 1.2 mph /  1.9 km/h 72 % 0.00 in /  0 mm
15:06 51.0 °F /  10.6 °C 41.9 °F /  5.5 °C 30.19 in /  1022.2 hPa ESE 3.0 mph /  4.8 km/h 3.0 mph /  4.8 km/h 71 % 0.00 in /  0 mm
15:11 51.0 °F /  10.6 °C 41.9 °F /  5.5 °C 30.19 in /  1022.2 hPa SSE 2.0 mph /  3.2 km/h 2.0 mph /  3.2 km/h 71 % 0.00 in /  0 mm
15:16 50.9 °F /  10.5 °C 41.8 °F /  5.4 °C 30.19 in /  1022.2 hPa SE 1.2 mph /  1.9 km/h 1.2 mph /  1.9 km/h 71 % 0.00 in /  0 mm
15:21 50.6 °F /  10.3 °C 41.9 °F /  5.5 °C 30.19 in /  1022.2 hPa SSE 3.5 mph /  5.6 km/h 3.5 mph /  5.6 km/h 72 % 0.00 in /  0 mm
15:26 50.3 °F /  10.2 °C 42.0 °F /  5.6 °C 30.19 in /  1022.2 hPa SSE 2.3 mph /  3.7 km/h 2.3 mph /  3.7 km/h 73 % 0.00 in /  0 mm
15:31 50.1 °F /  10.1 °C 42.1 °F /  5.6 °C 30.20 in /  1022.6 hPa SE 1.2 mph /  1.9 km/h 1.2 mph /  1.9 km/h 74 % 0.00 in /  0 mm
15:36 50.2 °F /  10.1 °C 41.5 °F /  5.3 °C 30.20 in /  1022.6 hPa ESE 2.3 mph /  3.7 km/h 2.3 mph /  3.7 km/h 72 % 0.00 in /  0 mm
15:41 50.1 °F /  10.1 °C 41.4 °F /  5.2 °C 30.20 in /  1022.6 hPa SSE 1.0 mph /  1.6 km/h 1.0 mph /  1.6 km/h 72 % 0.00 in /  0 mm
15:46 50.2 °F /  10.1 °C 41.2 °F /  5.1 °C 30.20 in /  1022.6 hPa South 2.3 mph /  3.7 km/h 2.3 mph /  3.7 km/h 71 % 0.00 in /  0 mm
15:51 50.2 °F /  10.1 °C 41.5 °F /  5.3 °C 30.20 in /  1022.6 hPa Calm     72 % 0.00 in /  0 mm
15:56 50.1 °F /  10.1 °C 41.4 °F /  5.2 °C 30.20 in /  1022.6 hPa South 1.2 mph /  1.9 km/h 1.2 mph /  1.9 km/h 72 % 0.00 in /  0 mm
16:01 50.1 °F /  10.1 °C 41.4 °F /  5.2 °C 30.21 in /  1022.9 hPa ESE 1.2 mph /  1.9 km/h 1.2 mph /  1.9 km/h 72 % 0.00 in /  0 mm
16:06 50.1 °F /  10.1 °C 41.4 °F /  5.2 °C 30.21 in /  1022.9 hPa SSE 3.5 mph /  5.6 km/h 3.5 mph /  5.6 km/h 72 % 0.00 in /  0 mm
16:11 50.0 °F /  10 °C 41.3 °F /  5.2 °C 30.21 in /  1022.9 hPa SSW 1.2 mph /  1.9 km/h   72 % 0.00 in /  0 mm
16:16 49.8 °F /  9.9 °C 41.1 °F /  5.1 °C 30.21 in /  1022.9 hPa SE 1.2 mph /  1.9 km/h   72 % 0.00 in /  0 mm
16:21 49.6 °F /  9.8 °C 40.9 °F /  4.9 °C 30.21 in /  1022.9 hPa ESE 1.2 mph /  1.9 km/h 1.2 mph /  1.9 km/h 72 % 0.00 in /  0 mm
16:26 49.5 °F /  9.7 °C 41.2 °F /  5.1 °C 30.22 in /  1023.2 hPa Calm     73 % 0.00 in /  0 mm
16:31 49.3 °F /  9.6 °C 41.0 °F /  5 °C 30.22 in /  1023.2 hPa SE 1.2 mph /  1.9 km/h 1.2 mph /  1.9 km/h 73 % 0.00 in /  0 mm
16:36 49.0 °F /  9.4 °C 41.1 °F /  5.1 °C 30.22 in /  1023.2 hPa SE 1.2 mph /  1.9 km/h 1.2 mph /  1.9 km/h 74 % 0.00 in /  0 mm
16:41 48.8 °F /  9.3 °C 40.9 °F /  4.9 °C 30.22 in /  1023.2 hPa Calm     74 % 0.00 in /  0 mm
16:46 48.5 °F /  9.2 °C 40.9 °F /  4.9 °C 30.22 in /  1023.2 hPa Calm     75 % 0.00 in /  0 mm
16:51 48.2 °F /  9 °C 41.0 °F /  5 °C 30.22 in /  1023.2 hPa Calm     76 % 0.00 in /  0 mm
16:56 47.8 °F /  8.8 °C 40.9 °F /  4.9 °C 30.22 in /  1023.2 hPa Calm     77 % 0.00 in /  0 mm
17:01 47.6 °F /  8.7 °C 40.7 °F /  4.8 °C 30.22 in /  1023.2 hPa Calm     77 % 0.00 in /  0 mm
17:06 47.4 °F /  8.6 °C 40.9 °F /  4.9 °C 30.22 in /  1023.2 hPa Calm     78 % 0.00 in /  0 mm
17:11 47.1 °F /  8.4 °C 40.6 °F /  4.8 °C 30.22 in /  1023.2 hPa Calm     78 % 0.00 in /  0 mm
17:16 46.7 °F /  8.2 °C 40.5 °F /  4.7 °C 30.23 in /  1023.6 hPa Calm     79 % 0.00 in /  0 mm
17:21 46.3 °F /  7.9 °C 40.1 °F /  4.5 °C 30.23 in /  1023.6 hPa Calm     79 % 0.00 in /  0 mm
17:26 46.1 °F /  7.8 °C 39.9 °F /  4.4 °C 30.23 in /  1023.6 hPa Calm     79 % 0.00 in /  0 mm
17:31 45.9 °F /  7.7 °C 40.1 °F /  4.5 °C 30.23 in /  1023.6 hPa Calm     80 % 0.00 in /  0 mm
17:36 45.6 °F /  7.6 °C 39.8 °F /  4.3 °C 30.23 in /  1023.6 hPa Calm     80 % 0.00 in /  0 mm
17:41 45.2 °F /  7.3 °C 39.7 °F /  4.3 °C 30.23 in /  1023.6 hPa Calm     81 % 0.00 in /  0 mm
17:46 44.7 °F /  7.1 °C 39.5 °F /  4.2 °C 30.23 in /  1023.6 hPa Calm     82 % 0.00 in /  0 mm
17:51 44.3 °F /  6.8 °C 39.5 °F /  4.2 °C 30.23 in /  1023.6 hPa Calm     83 % 0.00 in /  0 mm
17:56 44.0 °F /  6.7 °C 39.5 °F /  4.2 °C 30.23 in /  1023.6 hPa Calm     84 % 0.00 in /  0 mm
18:01 43.8 °F /  6.6 °C 39.6 °F /  4.2 °C 30.24 in /  1023.9 hPa Calm     85 % 0.00 in /  0 mm
18:06 43.7 °F /  6.5 °C 39.5 °F /  4.2 °C 30.24 in /  1023.9 hPa Calm     85 % 0.00 in /  0 mm
18:11 43.3 °F /  6.3 °C 39.1 °F /  3.9 °C 30.24 in /  1023.9 hPa Calm     85 % 0.00 in /  0 mm
18:16 43.0 °F /  6.1 °C 39.1 °F /  3.9 °C 30.24 in /  1023.9 hPa Calm     86 % 0.00 in /  0 mm
18:21 42.7 °F /  5.9 °C 39.1 °F /  3.9 °C 30.24 in /  1023.9 hPa Calm     87 % 0.00 in /  0 mm
18:26 42.2 °F /  5.7 °C 38.6 °F /  3.7 °C 30.24 in /  1023.9 hPa Calm     87 % 0.00 in /  0 mm
18:31 41.9 °F /  5.5 °C 38.6 °F /  3.7 °C 30.24 in /  1023.9 hPa Calm     88 % 0.00 in /  0 mm
18:36 41.6 °F /  5.3 °C 38.6 °F /  3.7 °C 30.24 in /  1023.9 hPa Calm     89 % 0.00 in /  0 mm
18:41 41.5 °F /  5.3 °C 38.5 °F /  3.6 °C 30.23 in /  1023.6 hPa Calm     89 % 0.00 in /  0 mm
18:46 41.3 °F /  5.2 °C 38.3 °F /  3.5 °C 30.24 in /  1023.9 hPa Calm     89 % 0.00 in /  0 mm
18:51 41.0 °F /  5 °C 38.3 °F /  3.5 °C 30.23 in /  1023.6 hPa Calm     90 % 0.00 in /  0 mm
18:56 40.9 °F /  4.9 °C 38.2 °F /  3.4 °C 30.23 in /  1023.6 hPa Calm     90 % 0.00 in /  0 mm
19:01 40.7 °F /  4.8 °C 38.3 °F /  3.5 °C 30.23 in /  1023.6 hPa Calm     91 % 0.00 in /  0 mm
19:06 40.8 °F /  4.9 °C 38.4 °F /  3.6 °C 30.23 in /  1023.6 hPa Calm     91 % 0.00 in /  0 mm
19:11 40.8 °F /  4.9 °C 38.4 °F /  3.6 °C 30.23 in /  1023.6 hPa Calm     91 % 0.00 in /  0 mm
19:16 40.7 °F /  4.8 °C 38.3 °F /  3.5 °C 30.23 in /  1023.6 hPa Calm     91 % 0.00 in /  0 mm
19:21 40.3 °F /  4.6 °C 37.9 °F /  3.3 °C 30.23 in /  1023.6 hPa Calm     91 % 0.00 in /  0 mm
19:26 40.0 °F /  4.4 °C 37.6 °F /  3.1 °C 30.23 in /  1023.6 hPa Calm     91 % 0.00 in /  0 mm
19:31 39.8 °F /  4.3 °C 37.4 °F /  3 °C 30.23 in /  1023.6 hPa Calm     91 % 0.00 in /  0 mm
19:36 39.6 °F /  4.2 °C 37.2 °F /  2.9 °C 30.23 in /  1023.6 hPa Calm     91 % 0.00 in /  0 mm
19:41 39.3 °F /  4.1 °C 36.9 °F /  2.7 °C 30.23 in /  1023.6 hPa Calm     91 % 0.00 in /  0 mm
19:46 39.2 °F /  4 °C 37.1 °F /  2.8 °C 30.23 in /  1023.6 hPa Calm     92 % 0.00 in /  0 mm
19:51 39.1 °F /  3.9 °C 37.0 °F /  2.8 °C 30.23 in /  1023.6 hPa Calm     92 % 0.00 in /  0 mm
19:56 39.3 °F /  4.1 °C 37.4 °F /  3 °C 30.23 in /  1023.6 hPa Calm     93 % 0.00 in /  0 mm
20:01 39.2 °F /  4 °C 37.3 °F /  2.9 °C 30.24 in /  1023.9 hPa Calm     93 % 0.00 in /  0 mm
20:06 39.2 °F /  4 °C 37.3 °F /  2.9 °C 30.24 in /  1023.9 hPa Calm     93 % 0.00 in /  0 mm
20:11 39.2 °F /  4 °C 37.3 °F /  2.9 °C 30.24 in /  1023.9 hPa Calm     93 % 0.00 in /  0 mm
20:16 39.1 °F /  3.9 °C 37.2 °F /  2.9 °C 30.24 in /  1023.9 hPa Calm     93 % 0.00 in /  0 mm
20:21 39.0 °F /  3.9 °C 37.1 °F /  2.8 °C 30.24 in /  1023.9 hPa Calm     93 % 0.00 in /  0 mm
20:26 39.2 °F /  4 °C 37.3 °F /  2.9 °C 30.24 in /  1023.9 hPa Calm     93 % 0.00 in /  0 mm
20:31 39.2 °F /  4 °C 37.3 °F /  2.9 °C 30.25 in /  1024.3 hPa Calm     93 % 0.00 in /  0 mm
20:36 39.2 °F /  4 °C 37.3 °F /  2.9 °C 30.25 in /  1024.3 hPa Calm     93 % 0.00 in /  0 mm
20:41 39.0 °F /  3.9 °C 37.1 °F /  2.8 °C 30.25 in /  1024.3 hPa Calm     93 % 0.00 in /  0 mm
20:46 38.9 °F /  3.8 °C 37.0 °F /  2.8 °C 30.25 in /  1024.3 hPa Calm     93 % 0.00 in /  0 mm
20:51 38.9 °F /  3.8 °C 37.0 °F /  2.8 °C 30.25 in /  1024.3 hPa Calm     93 % 0.00 in /  0 mm
20:56 39.0 °F /  3.9 °C 37.1 °F /  2.8 °C 30.25 in /  1024.3 hPa Calm     93 % 0.00 in /  0 mm
21:01 39.1 °F /  3.9 °C 37.0 °F /  2.8 °C 30.26 in /  1024.6 hPa Calm     92 % 0.00 in /  0 mm
21:06 39.3 °F /  4.1 °C 37.2 °F /  2.9 °C 30.26 in /  1024.6 hPa Calm     92 % 0.00 in /  0 mm
21:11 39.3 °F /  4.1 °C 36.9 °F /  2.7 °C 30.26 in /  1024.6 hPa SE 1.2 mph /  1.9 km/h   91 % 0.00 in /  0 mm
21:16 39.3 °F /  4.1 °C 36.9 °F /  2.7 °C 30.26 in /  1024.6 hPa Calm     91 % 0.00 in /  0 mm
21:21 39.3 °F /  4.1 °C 36.6 °F /  2.6 °C 30.26 in /  1024.6 hPa Calm     90 % 0.00 in /  0 mm
21:26 39.2 °F /  4 °C 36.5 °F /  2.5 °C 30.26 in /  1024.6 hPa Calm     90 % 0.00 in /  0 mm
21:31 38.9 °F /  3.8 °C 36.2 °F /  2.3 °C 30.26 in /  1024.6 hPa Calm     90 % 0.00 in /  0 mm
21:36 38.5 °F /  3.6 °C 35.8 °F /  2.1 °C 30.27 in /  1024.9 hPa Calm     90 % 0.00 in /  0 mm
21:41 38.0 °F /  3.3 °C 35.3 °F /  1.8 °C 30.27 in /  1024.9 hPa Calm     90 % 0.00 in /  0 mm
21:46 37.6 °F /  3.1 °C 35.2 °F /  1.8 °C 30.27 in /  1024.9 hPa Calm     91 % 0.00 in /  0 mm
21:51 37.3 °F /  2.9 °C 34.9 °F /  1.6 °C 30.27 in /  1024.9 hPa Calm     91 % 0.00 in /  0 mm
21:56 37.1 °F /  2.8 °C 35.0 °F /  1.7 °C 30.27 in /  1024.9 hPa Calm     92 % 0.00 in /  0 mm
22:01 36.9 °F /  2.7 °C 34.8 °F /  1.6 °C 30.27 in /  1024.9 hPa Calm     92 % 0.00 in /  0 mm
22:06 36.9 °F /  2.7 °C 35.1 °F /  1.7 °C 30.28 in /  1025.3 hPa Calm     93 % 0.00 in /  0 mm
22:11 36.9 °F /  2.7 °C 35.1 °F /  1.7 °C 30.28 in /  1025.3 hPa Calm     93 % 0.00 in /  0 mm
22:16 37.0 °F /  2.8 °C 35.2 °F /  1.8 °C 30.28 in /  1025.3 hPa SE 1.2 mph /  1.9 km/h 1.2 mph /  1.9 km/h 93 % 0.00 in /  0 mm
22:26 37.6 °F /  3.1 °C 36.0 °F /  2.2 °C 30.28 in /  1025.3 hPa Calm     94 % 0.00 in /  0 mm
22:31 37.7 °F /  3.2 °C 35.9 °F /  2.2 °C 30.28 in /  1025.3 hPa Calm     93 % 0.00 in /  0 mm
22:36 37.6 °F /  3.1 °C 35.8 °F /  2.1 °C 30.28 in /  1025.3 hPa Calm     93 % 0.00 in /  0 mm
22:41 37.2 °F /  2.9 °C 35.1 °F /  1.7 °C 30.28 in /  1025.3 hPa Calm     92 % 0.00 in /  0 mm
22:46 36.7 °F /  2.6 °C 34.6 °F /  1.4 °C 30.28 in /  1025.3 hPa Calm     92 % 0.00 in /  0 mm
22:51 36.2 °F /  2.3 °C 34.1 °F /  1.2 °C 30.28 in /  1025.3 hPa Calm     92 % 0.00 in /  0 mm
22:56 35.8 °F /  2.1 °C 33.7 °F /  0.9 °C 30.29 in /  1025.6 hPa Calm     92 % 0.00 in /  0 mm
23:01 35.7 °F /  2.1 °C 33.9 °F /  1.1 °C 30.29 in /  1025.6 hPa Calm     93 % 0.00 in /  0 mm
23:06 35.6 °F /  2 °C 33.8 °F /  1 °C 30.29 in /  1025.6 hPa Calm     93 % 0.00 in /  0 mm
23:11 35.3 °F /  1.8 °C 33.5 °F /  0.8 °C 30.29 in /  1025.6 hPa Calm     93 % 0.00 in /  0 mm
23:16 35.1 °F /  1.7 °C 33.3 °F /  0.7 °C 30.29 in /  1025.6 hPa Calm     93 % 0.00 in /  0 mm
23:21 34.8 °F /  1.6 °C 33.0 °F /  0.6 °C 30.30 in /  1026 hPa Calm     93 % 0.00 in /  0 mm
23:26 34.7 °F /  1.5 °C 32.9 °F /  0.5 °C 30.30 in /  1026 hPa Calm     93 % 0.00 in /  0 mm
23:31 34.6 °F /  1.4 °C 32.8 °F /  0.4 °C 30.30 in /  1026 hPa Calm     93 % 0.00 in /  0 mm
23:36 34.5 °F /  1.4 °C 32.7 °F /  0.4 °C 30.30 in /  1026 hPa Calm     93 % 0.00 in /  0 mm
23:41 34.6 °F /  1.4 °C 33.1 °F /  0.6 °C 30.30 in /  1026 hPa Calm     94 % 0.00 in /  0 mm
23:46 34.7 °F /  1.5 °C 33.2 °F /  0.7 °C 30.30 in /  1026 hPa Calm     94 % 0.00 in /  0 mm
Park Place, Exeter, Tulare County, California, USA
Compliments of Weather Underground - 2.75 mb